Point Baker, Alaska
Current Conditions -  °F | °C
As of 7:54 PM on Sunday 21 Dec 2014 (Local Time) from PAPG Reporting Station
Light Rain Light Rain  
Wind Chill: 39°   Ceiling: 2100
Heat Index: 39°   Visibility: 10mi
Dew Point: 36°   Wind: 0mph
Humidity: 87%   Direction: NA
Pressure: 29.63"   Gusts: NA
Location:  56.35°N, 133.61°W
Report Text: PAPG 220454Z 00000KT 10SM -RA FEW013 OVC021 04/02 A2963
Loading
Personal Weather Stations






























Interactive Weather Map New forecast layout! Learn more

10-Day Weather Forecast

Advertisements
Track Severe Weather on mobile